Time;durP1;ratioP1;P1;durP2;ratioP2;P2;SDS_P1;SDS_P2;PMS_P1;PMS_P2;Temp;Humidity;BMP_temperature;BMP_pressure;BME280_temperature;BME280_humidity;BME280_pressure;Samples;Min_cycle;Max_cycle;Signal;HPM_P1;HPM_P2
2022/09/30 00:01:36;;;;;;;6.80;2.97;;;;;;;16.59;61.29;100271.88;6186372;23;20028;-85
2022/09/30 00:04:03;;;;;;;6.15;2.78;;;;;;;16.61;61.06;100283.63;6187282;23;20021;-86
2022/09/30 00:06:33;;;;;;;9.70;3.08;;;;;;;16.77;61.15;100320.69;6186975;23;20318;-85
2022/09/30 00:09:01;;;;;;;6.43;2.78;;;;;;;16.66;61.51;100320.13;6160588;23;20021;-84
2022/09/30 00:11:29;;;;;;;8.73;2.85;;;;;;;16.60;61.28;100324.25;6186789;23;20025;-84
2022/09/30 00:13:57;;;;;;;6.40;2.35;;;;;;;16.51;61.70;100321.44;6186392;23;20027;-84
2022/09/30 00:16:27;;;;;;;5.53;2.42;;;;;;;16.43;61.89;100310.09;6185829;23;20035;-85
2022/09/30 00:18:55;;;;;;;7.93;2.53;;;;;;;16.40;61.83;100302.31;6186508;23;20025;-85
2022/09/30 00:21:24;;;;;;;6.18;1.98;;;;;;;16.48;61.23;100315.63;6159519;23;20037;-86
2022/09/30 00:23:51;;;;;;;6.32;2.53;;;;;;;16.29;61.47;100296.97;6186561;23;20025;-86
2022/09/30 00:26:20;;;;;;;3.83;1.80;;;;;;;16.47;61.73;100330.84;6185947;23;20024;-86
2022/09/30 00:28:55;;;;;;;4.03;1.80;;;;;;;16.21;61.91;100305.38;6189509;23;20025;-86
2022/09/30 00:31:24;;;;;;;7.03;2.45;;;;;;;16.35;61.77;100329.47;6188119;23;20025;-86
2022/09/30 00:34:06;;;;;;;3.97;2.08;;;;;;;16.21;62.20;100300.56;6189385;23;20017;-86
2022/09/30 00:36:42;;;;;;;8.05;2.97;;;;;;;16.12;61.90;100291.25;6185067;23;20065;-85
2022/09/30 00:39:18;;;;;;;4.93;2.00;;;;;;;16.36;61.64;100330.31;6186423;23;20497;-85
2022/09/30 00:41:48;;;;;;;4.20;2.05;;;;;;;16.32;61.68;100324.50;6186446;23;20028;-85
2022/09/30 00:44:52;;;;;;;5.05;1.83;;;;;;;16.26;61.87;100331.41;6160728;23;20024;-86
2022/09/30 00:47:46;;;;;;;9.25;2.40;;;;;;;16.25;61.83;100335.41;6190743;23;20021;-85
2022/09/30 00:50:30;;;;;;;5.47;2.10;;;;;;;16.18;61.86;100322.94;6192045;23;20032;-85
2022/09/30 00:53:29;;;;;;;4.93;2.72;;;;;;;16.17;61.49;100319.28;6193123;23;20021;-86
2022/09/30 00:56:12;;;;;;;8.65;3.75;;;;;;;16.23;61.75;100336.88;6187733;23;20021;-85
2022/09/30 00:58:49;;;;;;;4.88;2.40;;;;;;;16.05;61.88;100302.16;6186842;23;20021;-85
2022/09/30 01:01:17;;;;;;;4.95;2.17;;;;;;;15.92;61.58;100281.38;6186215;23;20021;-84
2022/09/30 01:03:50;;;;;;;5.47;2.78;;;;;;;16.20;61.51;100326.25;6160286;23;20084;-83
2022/09/30 01:06:20;;;;;;;4.70;2.35;;;;;;;16.15;61.55;100318.78;6186474;23;20040;-83
2022/09/30 01:08:48;;;;;;;4.13;2.05;;;;;;;16.23;61.06;100340.50;6159773;23;20101;-84
2022/09/30 01:11:15;;;;;;;4.03;2.13;;;;;;;16.21;61.22;100342.84;6186313;23;20029;-85
2022/09/30 01:13:45;;;;;;;8.65;3.25;;;;;;;16.25;61.36;100345.84;6186557;23;20030;-87
2022/09/30 01:16:15;;;;;;;;;;;;;;;16.15;61.20;100346.94;6187269;23;20025;-85
2022/09/30 01:18:57;;;;;;;7.50;1.90;;;;;;;16.14;61.32;100348.09;6158922;23;19919;-85
2022/09/30 01:21:46;;;;;;;4.85;2.28;;;;;;;16.06;61.84;100343.25;6160921;23;20189;-85
2022/09/30 01:24:22;;;;;;;3.38;1.40;;;;;;;16.15;62.16;100341.31;6162524;23;20066;-86
2022/09/30 01:27:11;;;;;;;4.07;1.58;;;;;;;16.16;62.14;100334.50;6165470;23;20021;-85
2022/09/30 01:30:10;;;;;;;3.08;1.50;;;;;;;16.09;62.12;100345.41;6192250;23;20028;-85
2022/09/30 01:33:05;;;;;;;2.38;1.38;;;;;;;16.11;61.66;100349.56;6208815;23;20068;-84
2022/09/30 01:36:06;;;;;;;4.10;1.35;;;;;;;16.14;61.56;100350.06;6209661;23;20068;-86
2022/09/30 01:39:01;;;;;;;2.95;1.65;;;;;;;16.05;61.52;100348.03;6201759;23;20025;-84
2022/09/30 01:41:39;;;;;;;2.63;1.38;;;;;;;16.14;61.50;100350.94;6187540;23;20032;-85
2022/09/30 01:44:26;;;;;;;7.85;1.63;;;;;;;16.07;61.50;100347.75;6184195;23;20025;-83
2022/09/30 01:47:00;;;;;;;4.05;1.50;;;;;;;15.97;61.67;100333.94;6185722;23;20021;-85
2022/09/30 01:49:43;;;;;;;3.42;1.80;;;;;;;16.03;61.83;100341.91;6184457;23;20123;-85
2022/09/30 01:52:14;;;;;;;3.05;1.30;;;;;;;16.06;61.80;100346.06;6185549;23;20017;-85
2022/09/30 01:55:12;;;;;;;3.03;1.52;;;;;;;15.94;61.94;100335.41;6186347;23;20021;-86
2022/09/30 01:57:55;;;;;;;2.45;1.60;;;;;;;15.91;61.70;100327.59;6158459;23;20021;-85
2022/09/30 02:00:24;;;;;;;2.45;1.15;;;;;;;15.98;61.91;100327.13;6158295;23;20470;-86
2022/09/30 02:02:57;;;;;;;7.47;1.70;;;;;;;16.04;61.71;100335.13;6184702;23;20072;-85
2022/09/30 02:05:56;;;;;;;5.03;1.90;;;;;;;16.07;61.96;100339.28;6184957;23;20017;-85
2022/09/30 02:08:40;;;;;;;6.80;1.73;;;;;;;16.11;61.92;100332.69;6185679;23;20017;-84
2022/09/30 02:11:22;;;;;;;4.18;1.58;;;;;;;16.10;61.57;100324.53;6185117;23;20021;-84
2022/09/30 02:14:01;;;;;;;6.10;1.80;;;;;;;16.22;61.70;100332.41;6157983;23;20021;-84
2022/09/30 02:16:38;;;;;;;3.37;1.30;;;;;;;16.06;61.81;100299.00;6183850;23;20104;-84
2022/09/30 02:19:10;;;;;;;5.95;1.55;;;;;;;16.18;61.84;100329.41;6184506;23;20021;-85
2022/09/30 02:21:41;;;;;;;10.18;1.60;;;;;;;16.09;61.26;100311.59;6184457;23;20021;-84
2022/09/30 02:24:13;;;;;;;3.45;1.40;;;;;;;16.18;61.41;100320.94;6183306;23;20021;-85
2022/09/30 02:26:43;;;;;;;7.18;1.45;;;;;;;15.96;61.61;100278.72;6185551;23;20044;-85
2022/09/30 02:29:44;;;;;;;2.78;1.40;;;;;;;16.00;61.70;100297.50;6157940;23;20025;-85
2022/09/30 02:32:22;;;;;;;4.20;1.42;;;;;;;16.08;61.23;100295.88;6163170;23;20025;-85
2022/09/30 02:34:55;;;;;;;9.48;1.98;;;;;;;15.98;61.31;100280.06;6159922;23;20029;-85
2022/09/30 02:37:43;;;;;;;4.03;1.65;;;;;;;16.00;61.20;100291.88;6158647;23;20031;-85
2022/09/30 02:40:15;;;;;;;4.07;2.10;;;;;;;15.99;61.28;100275.28;6184067;23;20025;-85
2022/09/30 02:42:44;;;;;;;5.35;1.75;;;;;;;15.96;61.65;100270.28;6184334;23;20072;-85
2022/09/30 02:45:15;;;;;;;6.63;1.85;;;;;;;16.04;61.14;100286.41;6184339;23;20043;-85
2022/09/30 02:47:47;;;;;;;4.13;1.90;;;;;;;15.95;60.95;100271.44;6184025;23;20021;-85
2022/09/30 02:50:34;;;;;;;4.03;1.58;;;;;;;16.00;60.99;100282.56;6185057;23;20028;-85
2022/09/30 02:53:06;;;;;;;2.85;1.83;;;;;;;15.96;61.40;100284.38;6185379;23;20024;-86
2022/09/30 02:55:48;;;;;;;4.82;2.25;;;;;;;15.94;61.15;100283.88;6185114;23;20028;-85
2022/09/30 02:58:20;;;;;;;5.22;1.58;;;;;;;15.95;61.03;100286.34;6158910;23;20021;-86
2022/09/30 03:00:49;;;;;;;8.82;2.08;;;;;;;15.84;60.55;100268.91;6156716;23;20029;-85
2022/09/30 03:03:20;;;;;;;5.68;1.90;;;;;;;15.87;60.92;100279.53;6184253;23;20021;-85
2022/09/30 03:05:49;;;;;;;3.28;2.17;;;;;;;15.85;60.51;100272.56;6187549;23;20031;-86
2022/09/30 03:08:16;;;;;;;4.53;1.95;;;;;;;15.94;60.61;100306.41;6158792;23;20456;-86
2022/09/30 03:10:44;;;;;;;5.03;1.88;;;;;;;15.60;60.95;100259.97;6183899;23;20025;-84
2022/09/30 03:13:17;;;;;;;4.07;2.03;;;;;;;15.79;60.86;100311.25;6185897;23;20021;-85
2022/09/30 03:15:59;;;;;;;8.85;2.42;;;;;;;15.64;60.64;100289.13;6186765;23;20021;-85
2022/09/30 03:18:56;;;;;;;2.42;1.65;;;;;;;15.56;60.77;100295.53;6158789;23;20476;-85
2022/09/30 03:21:50;;;;;;;6.07;1.85;;;;;;;15.49;61.17;100295.16;6185753;23;20495;-84
2022/09/30 03:24:51;;;;;;;3.47;1.75;;;;;;;15.59;61.17;100321.06;6185183;23;20021;-84
2022/09/30 03:27:36;;;;;;;;;;;;;;;15.45;61.51;100336.31;6186585;23;20356;-84
2022/09/30 03:30:05;;;;;;;4.68;1.55;;;;;;;15.40;61.40;100315.59;6185202;23;20343;-84
2022/09/30 03:32:50;;;;;;;11.82;1.92;;;;;;;15.50;61.46;100341.84;6160353;23;20032;-87
2022/09/30 03:35:24;;;;;;;9.98;1.88;;;;;;;15.47;61.52;100342.47;6189327;23;20021;-86
2022/09/30 03:38:28;;;;;;;4.53;1.70;;;;;;;15.40;61.45;100326.03;6187305;23;20020;-85
2022/09/30 03:40:55;;;;;;;4.35;1.80;;;;;;;15.40;61.54;100337.28;6186738;23;20534;-87
2022/09/30 03:43:43;;;;;;;5.45;1.80;;;;;;;15.18;61.62;100307.16;6162847;23;20021;-85
2022/09/30 03:46:12;;;;;;;5.13;2.40;;;;;;;15.39;61.55;100325.19;6189964;23;20021;-87
2022/09/30 03:48:41;;;;;;;3.33;1.27;;;;;;;15.32;61.64;100313.56;6204133;23;20475;-88
2022/09/30 03:51:09;;;;;;;5.10;1.93;;;;;;;15.28;61.25;100317.31;6178059;23;20025;-85
2022/09/30 03:53:40;;;;;;;6.18;1.75;;;;;;;15.46;61.89;100324.75;6199458;23;20025;-86
2022/09/30 03:56:07;;;;;;;3.75;1.65;;;;;;;15.51;61.63;100323.78;6206567;23;20021;-85
2022/09/30 03:58:38;;;;;;;3.15;1.70;;;;;;;15.52;61.71;100319.81;6180609;23;20021;-85
2022/09/30 04:01:05;;;;;;;2.70;1.60;;;;;;;15.44;61.36;100321.41;6180111;23;20048;-84
2022/09/30 04:03:34;;;;;;;3.67;1.60;;;;;;;15.39;61.49;100325.19;6188322;23;20101;-85
2022/09/30 04:06:01;;;;;;;9.05;1.88;;;;;;;15.24;61.40;100305.84;6159340;23;20027;-85
2022/09/30 04:08:29;;;;;;;4.10;1.85;;;;;;;15.37;61.47;100321.88;6159476;23;20028;-85
2022/09/30 04:10:59;;;;;;;4.97;1.52;;;;;;;15.22;61.61;100296.94;6184165;23;20021;-86
2022/09/30 04:13:26;;;;;;;4.03;2.00;;;;;;;15.10;61.59;100289.03;6158229;23;20043;-84
2022/09/30 04:15:53;;;;;;;4.07;1.60;;;;;;;15.18;61.50;100301.53;6160004;23;20356;-86
2022/09/30 04:18:20;;;;;;;5.38;1.98;;;;;;;15.07;61.14;100294.47;6158398;23;20487;-85
2022/09/30 04:20:47;;;;;;;3.25;1.85;;;;;;;15.04;61.49;100307.19;6157689;23;20032;-84
2022/09/30 04:23:14;;;;;;;1.75;1.25;;;;;;;15.16;61.57;100341.22;6135786;23;20028;-85
2022/09/30 04:25:41;;;;;;;4.53;1.30;;;;;;;15.13;61.74;100322.16;6186518;23;20044;-85
2022/09/30 04:28:08;;;;;;;3.40;1.42;;;;;;;14.96;61.66;100307.09;6185839;23;20029;-84
2022/09/30 04:30:36;;;;;;;4.20;1.70;;;;;;;15.11;61.35;100340.47;6159652;23;20421;-86
2022/09/30 04:33:06;;;;;;;2.58;1.33;;;;;;;14.86;61.56;100310.97;6159450;23;20476;-84
2022/09/30 04:35:36;;;;;;;4.53;1.65;;;;;;;15.02;61.61;100350.84;6160245;23;20027;-85
2022/09/30 04:38:06;;;;;;;5.70;1.77;;;;;;;14.90;61.77;100340.94;6186414;23;20032;-85
2022/09/30 04:40:38;;;;;;;2.67;1.55;;;;;;;14.91;61.68;100344.59;6188165;23;20021;-85
2022/09/30 04:43:05;;;;;;;9.02;2.15;;;;;;;15.10;61.67;100386.63;6161044;23;20025;-85
2022/09/30 04:45:32;;;;;;;2.45;1.60;;;;;;;14.96;61.70;100354.91;6188491;23;20445;-86
2022/09/30 04:47:59;;;;;;;5.80;3.65;;;;;;;14.93;61.61;100343.13;6190741;23;20027;-85
2022/09/30 04:50:26;;;;;;;6.40;2.95;;;;;;;14.81;61.40;100323.16;6195563;23;20039;-85
2022/09/30 04:52:55;;;;;;;4.22;3.88;;;;;;;14.87;61.37;100347.22;6212484;23;20058;-85
2022/09/30 04:55:22;;;;;;;6.30;2.03;;;;;;;14.87;61.70;100380.09;6210831;23;20005;-85
2022/09/30 04:57:49;;;;;;;2.75;1.58;;;;;;;14.64;62.04;100370.75;6177521;23;20480;-84
2022/09/30 05:00:16;;;;;;;3.57;1.60;;;;;;;14.63;62.35;100385.94;6187313;23;20031;-85
2022/09/30 05:02:43;;;;;;;3.45;1.70;;;;;;;14.73;62.26;100405.41;6187645;23;20340;-86
2022/09/30 05:05:10;;;;;;;7.18;1.33;;;;;;;14.58;62.28;100360.75;6185643;23;20021;-86
2022/09/30 05:07:37;;;;;;;3.10;1.73;;;;;;;14.76;62.10;100390.72;6188641;23;20446;-88
2022/09/30 05:10:04;;;;;;;3.83;1.48;;;;;;;14.81;62.00;100399.06;6186508;23;20021;-87
2022/09/30 05:12:31;;;;;;;3.00;1.58;;;;;;;14.67;62.04;100409.50;6190645;23;20080;-87
2022/09/30 05:14:58;;;;;;;4.70;2.28;;;;;;;14.58;62.17;100411.34;6159777;23;20337;-86
2022/09/30 05:17:28;;;;;;;6.10;1.60;;;;;;;14.61;62.16;100427.59;6187827;23;20071;-86
2022/09/30 05:19:55;;;;;;;4.05;1.60;;;;;;;14.38;62.16;100390.06;6186760;23;20342;-88
2022/09/30 05:22:23;;;;;;;4.93;1.90;;;;;;;14.44;62.48;100406.50;6161303;23;20016;-86
2022/09/30 05:24:51;;;;;;;5.70;1.77;;;;;;;14.54;62.58;100424.34;6187909;23;20092;-87
2022/09/30 05:27:19;;;;;;;4.30;1.70;;;;;;;14.50;62.54;100412.03;6189854;23;20483;-88
2022/09/30 05:29:46;;;;;;;5.75;2.35;;;;;;;14.52;62.44;100423.81;6194187;23;20049;-86
2022/09/30 05:32:13;;;;;;;3.67;1.60;;;;;;;14.59;62.30;100425.06;6193395;23;20025;-87
2022/09/30 05:34:39;;;;;;;4.63;1.50;;;;;;;14.55;62.80;100421.22;6191834;23;20077;-85
2022/09/30 05:37:11;;;;;;;3.22;1.55;;;;;;;14.65;62.48;100429.47;6185950;23;20104;-84
2022/09/30 05:39:37;;;;;;;5.18;2.70;;;;;;;14.43;62.37;100410.47;6187164;23;20456;-85
2022/09/30 05:42:04;;;;;;;3.58;1.70;;;;;;;14.68;62.47;100433.63;6171075;23;20107;-84
2022/09/30 05:44:34;;;;;;;5.30;1.98;;;;;;;14.43;62.41;100404.03;6168662;23;20027;-84
2022/09/30 05:47:01;;;;;;;5.97;2.20;;;;;;;14.66;62.52;100438.72;6167428;23;20025;-82
2022/09/30 05:49:28;;;;;;;2.75;1.48;;;;;;;14.54;62.13;100430.81;6185474;23;20025;-83
2022/09/30 05:51:55;;;;;;;10.13;1.75;;;;;;;14.55;62.31;100423.19;6188652;23;20025;-84
2022/09/30 05:54:22;;;;;;;2.55;1.92;;;;;;;14.37;62.30;100403.28;6192982;23;20043;-85
2022/09/30 05:56:48;;;;;;;5.03;1.88;;;;;;;14.56;62.34;100453.78;6190848;23;20043;-82
2022/09/30 05:59:15;;;;;;;6.07;1.80;;;;;;;14.36;62.50;100407.22;6164386;23;20043;-78
2022/09/30 06:01:42;;;;;;;3.53;1.20;;;;;;;14.46;62.50;100423.03;6200960;23;20039;-77
2022/09/30 06:04:09;;;;;;;5.60;1.80;;;;;;;14.60;62.41;100448.41;6201049;23;20023;-74
2022/09/30 06:06:36;;;;;;;2.65;1.38;;;;;;;14.55;62.31;100440.06;6149883;23;20029;-73
2022/09/30 06:09:03;;;;;;;5.53;1.50;;;;;;;14.71;62.30;100458.31;6195068;23;20024;-79
2022/09/30 06:11:30;;;;;;;13.30;1.90;;;;;;;14.59;62.16;100446.72;6185104;23;20032;-78
2022/09/30 06:13:57;;;;;;;6.03;1.30;;;;;;;14.51;62.38;100442.66;6183271;23;20029;-80
2022/09/30 06:16:24;;;;;;;6.33;2.00;;;;;;;14.48;62.21;100445.22;6183547;23;20120;-82
2022/09/30 06:18:51;;;;;;;7.53;1.38;;;;;;;14.51;62.23;100458.69;6158313;23;20029;-83
2022/09/30 06:21:18;;;;;;;5.35;1.50;;;;;;;14.32;62.25;100428.63;6153474;23;20020;-81
2022/09/30 06:23:45;;;;;;;3.27;1.67;;;;;;;14.16;62.26;100411.25;6158106;23;20017;-82
2022/09/30 06:26:13;;;;;;;2.33;1.47;;;;;;;14.51;62.28;100462.31;6157084;23;20016;-82
2022/09/30 06:28:41;;;;;;;4.17;1.40;;;;;;;14.50;62.23;100457.00;6158586;23;20044;-81
2022/09/30 06:31:10;;;;;;;5.30;1.80;;;;;;;14.49;62.44;100464.56;6183879;23;20028;-81
2022/09/30 06:33:37;;;;;;;7.72;7.13;;;;;;;14.31;62.26;100429.78;6158409;23;20083;-83
2022/09/30 06:36:05;;;;;;;8.43;7.55;;;;;;;14.44;62.28;100448.66;6157780;23;20021;-80
2022/09/30 06:38:35;;;;;;;6.63;5.40;;;;;;;14.35;62.20;100422.41;6158629;23;20397;-82
2022/09/30 06:41:03;;;;;;;4.03;2.37;;;;;;;14.57;62.22;100451.84;6183613;23;20025;-81
2022/09/30 06:43:30;;;;;;;8.25;3.78;;;;;;;14.40;62.02;100424.31;6157225;23;20021;-81
2022/09/30 06:46:12;;;;;;;5.93;3.23;;;;;;;14.43;62.10;100438.56;6184819;23;20025;-81
2022/09/30 06:48:44;;;;;;;5.15;2.38;;;;;;;14.42;61.92;100434.06;6158294;23;20096;-81
2022/09/30 06:51:11;;;;;;;6.80;2.50;;;;;;;14.49;61.77;100441.25;6159121;23;20028;-81
2022/09/30 06:53:39;;;;;;;5.82;1.90;;;;;;;14.60;61.96;100460.47;6183903;23;20021;-80
2022/09/30 06:56:06;;;;;;;6.10;1.95;;;;;;;14.54;61.94;100449.66;6182834;23;20086;-81
2022/09/30 06:58:33;;;;;;;3.65;2.35;;;;;;;14.49;62.27;100455.31;6183329;23;20032;-80
2022/09/30 07:01:04;;;;;;;5.73;1.80;;;;;;;14.57;62.05;100443.41;6184201;23;20085;-81
2022/09/30 07:03:33;;;;;;;6.63;2.20;;;;;;;14.71;61.83;100449.88;6184782;23;20547;-81
2022/09/30 07:06:03;;;;;;;5.97;1.90;;;;;;;14.75;61.87;100456.53;6159980;23;20028;-81
2022/09/30 07:08:31;;;;;;;8.75;2.83;;;;;;;14.81;61.62;100458.09;6159080;23;20024;-81
2022/09/30 07:11:00;;;;;;;8.93;3.00;;;;;;;14.73;61.44;100450.38;6184467;23;20083;-81
2022/09/30 07:13:27;;;;;;;8.37;2.30;;;;;;;14.68;61.36;100448.50;6158552;23;20024;-81
2022/09/30 07:15:55;;;;;;;5.85;2.90;;;;;;;14.92;61.28;100492.47;6184158;23;20027;-80
2022/09/30 07:18:23;;;;;;;14.90;5.20;;;;;;;14.96;61.50;100487.06;6184568;23;20021;-80
2022/09/30 07:20:52;;;;;;;10.10;4.18;;;;;;;15.06;61.49;100500.91;6185014;23;20021;-80
2022/09/30 07:23:19;;;;;;;7.22;3.53;;;;;;;14.81;61.22;100444.06;6132889;23;20056;-81
2022/09/30 07:25:55;;;;;;;6.95;3.20;;;;;;;15.16;61.12;100483.84;6160036;23;20032;-81
2022/09/30 07:28:29;;;;;;;;;;;;;;;15.35;61.09;100504.25;6184768;23;20033;-82
2022/09/30 07:30:57;;;;;;;8.95;5.65;;;;;;;15.36;60.87;100489.03;6184403;23;19916;-81
2022/09/30 07:33:45;;;;;;;17.25;8.82;;;;;;;15.23;60.81;100461.75;6161528;23;20025;-79
2022/09/30 07:36:17;;;;;;;13.48;5.72;;;;;;;15.65;60.72;100507.53;6157227;23;20021;-81
2022/09/30 07:38:46;;;;;;;5.45;2.67;;;;;;;15.68;60.44;100495.66;6157476;23;20025;-81
2022/09/30 07:41:16;;;;;;;4.25;2.05;;;;;;;15.94;60.06;100526.06;6187961;23;20469;-82
2022/09/30 07:43:44;;;;;;;;;;;;;;;16.05;60.62;100544.41;6192010;23;20053;-81
2022/09/30 07:46:24;;;;;;;3.40;1.77;;;;;;;16.14;60.12;100530.38;6192901;23;19942;-81
2022/09/30 07:48:55;;;;;;;3.25;1.75;;;;;;;16.33;59.52;100536.66;6166089;23;20025;-81
2022/09/30 07:51:38;;;;;;;5.60;1.30;;;;;;;16.46;59.60;100527.31;6159079;23;20021;-82
2022/09/30 07:54:10;;;;;;;7.82;2.67;;;;;;;16.77;58.96;100541.47;6184251;23;20027;-82
2022/09/30 07:56:40;;;;;;;4.95;2.22;;;;;;;16.78;58.85;100516.94;6185564;23;20027;-81
2022/09/30 07:59:29;;;;;;;3.40;1.63;;;;;;;17.10;58.41;100541.16;6186619;23;20028;-83
2022/09/30 08:01:56;;;;;;;3.50;2.13;;;;;;;17.00;57.81;100494.31;6164025;23;20036;-81
2022/09/30 08:04:25;;;;;;;3.47;1.70;;;;;;;17.52;57.56;100536.00;6187386;23;20013;-81
2022/09/30 08:06:59;;;;;;;4.25;2.08;;;;;;;17.81;57.06;100554.38;6187234;23;20052;-79
2022/09/30 08:09:28;;;;;;;8.70;1.55;;;;;;;18.03;56.67;100557.06;6162126;23;20020;-79
2022/09/30 08:11:55;;;;;;;12.80;1.58;;;;;;;17.90;56.49;100527.81;6180428;23;20036;-79
2022/09/30 08:14:25;;;;;;;3.45;1.42;;;;;;;18.29;56.07;100550.59;6180873;23;20314;-80
2022/09/30 08:16:52;;;;;;;5.35;1.83;;;;;;;18.59;55.81;100568.53;6183488;23;20025;-81
2022/09/30 08:19:22;;;;;;;8.30;1.58;;;;;;;18.73;55.34;100571.22;6176171;23;20045;-80
2022/09/30 08:21:50;;;;;;;4.15;2.05;;;;;;;19.00;55.11;100584.97;6203999;23;20021;-81
2022/09/30 08:24:17;;;;;;;4.05;2.00;;;;;;;19.35;54.67;100596.19;6197348;23;20021;-80
2022/09/30 08:26:44;;;;;;;4.32;2.80;;;;;;;19.72;54.05;100599.41;6185550;23;20064;-79
2022/09/30 08:29:13;;;;;;;2.05;1.27;;;;;;;19.79;53.16;100543.03;6187497;23;20025;-79
2022/09/30 08:31:51;;;;;;;5.43;3.00;;;;;;;20.57;52.99;100582.16;6160096;23;20360;-79
2022/09/30 08:34:18;;;;;;;6.10;1.40;;;;;;;20.90;51.87;100576.50;6186766;23;20056;-79
2022/09/30 08:36:45;;;;;;;7.60;1.40;;;;;;;21.38;50.99;100577.00;6160029;23;20025;-79
2022/09/30 08:39:12;;;;;;;3.00;1.17;;;;;;;21.89;50.24;100584.00;6159996;23;20025;-78
2022/09/30 08:41:55;;;;;;;3.05;1.77;;;;;;;22.00;49.83;100542.50;6185460;23;20028;-79
2022/09/30 08:44:54;;;;;;;5.22;1.40;;;;;;;22.56;48.94;100583.63;6186391;23;20025;-79
2022/09/30 08:47:26;;;;;;;5.35;1.20;;;;;;;22.85;48.08;100574.75;6157489;23;20021;-79
2022/09/30 08:50:23;;;;;;;10.98;1.50;;;;;;;23.10;47.80;100568.94;6158131;23;20025;-79
2022/09/30 08:52:53;;;;;;;5.55;1.25;;;;;;;23.28;46.81;100532.38;6149069;23;20025;-79
2022/09/30 08:55:24;;;;;;;2.92;1.35;;;;;;;23.82;45.86;100569.59;6186291;23;20086;-78
2022/09/30 08:57:54;;;;;;;4.03;1.30;;;;;;;24.09;45.78;100582.06;6186047;23;20029;-80
2022/09/30 09:00:22;;;;;;;3.40;1.10;;;;;;;24.35;45.28;100572.06;6186373;23;20043;-79
2022/09/30 09:02:54;;;;;;;8.43;1.70;;;;;;;24.53;44.73;100566.78;6159970;23;20025;-79
2022/09/30 09:05:47;;;;;;;1.65;1.15;;;;;;;24.82;43.90;100571.06;6185802;23;20021;-79
2022/09/30 09:08:39;;;;;;;2.15;1.13;;;;;;;25.07;43.97;100562.97;6161347;23;20348;-80
2022/09/30 09:11:29;;;;;;;5.57;1.55;;;;;;;25.25;43.32;100552.72;6161619;23;20316;-80
2022/09/30 09:14:21;;;;;;;6.50;5.93;;;;;;;25.38;42.57;100549.69;6159778;23;20023;-79
2022/09/30 09:17:16;;;;;;;4.13;3.83;;;;;;;25.65;42.24;100559.13;6185061;23;20036;-79
2022/09/30 09:19:55;;;;;;;4.95;1.65;;;;;;;25.86;41.58;100541.53;6185256;23;20506;-81
2022/09/30 09:22:24;;;;;;;2.63;1.48;;;;;;;26.40;40.31;100580.34;6188038;23;20059;-80
2022/09/30 09:24:52;;;;;;;2.30;1.10;;;;;;;26.43;39.69;100536.63;6184424;23;20040;-79
2022/09/30 09:27:31;;;;;;;3.42;1.50;;;;;;;26.67;39.56;100563.97;6185803;23;20027;-79
2022/09/30 09:30:06;;;;;;;;;;;;;;;26.70;42.20;100592.66;6158421;23;20115;-79
2022/09/30 09:32:34;;;;;;;3.50;1.55;;;;;;;26.95;39.60;100569.19;6184922;23;19920;-80
2022/09/30 09:35:30;;;;;;;2.80;2.07;;;;;;;27.70;39.55;100592.91;6157561;23;20020;-80
2022/09/30 09:41:20;;;;;;;2.97;2.75;;;;;;;28.78;36.82;100565.72;6184489;23;20043;-80
2022/09/30 09:43:57;;;;;;;4.25;1.17;;;;;;;29.25;36.34;100586.84;6183852;23;20056;-81
2022/09/30 09:46:26;;;;;;;1.58;1.05;;;;;;;29.64;35.39;100612.00;6184857;23;20025;-79
2022/09/30 09:49:19;;;;;;;1.65;1.15;;;;;;;29.65;35.05;100582.00;6158195;23;20383;-79
2022/09/30 09:52:12;;;;;;;3.13;1.17;;;;;;;29.97;34.87;100597.19;6168458;23;20145;-79
2022/09/30 09:54:49;;;;;;;2.45;1.50;;;;;;;30.37;33.92;100603.75;6158542;23;20039;-79
2022/09/30 09:57:23;;;;;;;2.75;1.30;;;;;;;30.48;33.49;100608.69;6158182;23;20017;-79
2022/09/30 10:03:18;;;;;;;2.25;1.33;;;;;;;30.72;33.63;100613.53;6183243;23;20025;-79
2022/09/30 10:06:11;;;;;;;4.10;1.48;;;;;;;31.02;33.41;100623.75;6182504;23;20017;-79
2022/09/30 10:08:51;;;;;;;4.88;1.25;;;;;;;31.26;32.26;100637.22;6157375;23;20025;-79
2022/09/30 10:11:25;;;;;;;1.67;1.00;;;;;;;31.50;32.02;100647.00;6183220;23;20020;-79
2022/09/30 10:13:57;;;;;;;3.10;1.50;;;;;;;31.13;31.90;100630.28;6157237;23;20028;-80
2022/09/30 10:16:26;;;;;;;3.00;1.60;;;;;;;31.52;31.81;100663.88;6158000;23;20344;-80
2022/09/30 10:18:54;;;;;;;4.53;1.10;;;;;;;31.46;31.64;100645.38;6181929;23;20439;-79
2022/09/30 10:21:26;;;;;;;4.20;1.42;;;;;;;31.61;31.11;100646.91;6156479;23;20476;-79
2022/09/30 10:23:54;;;;;;;3.13;1.27;;;;;;;31.82;30.96;100652.53;6157575;23;20017;-80
2022/09/30 10:26:26;;;;;;;3.50;1.38;;;;;;;31.85;30.66;100645.91;6186742;23;20356;-79
2022/09/30 10:29:02;;;;;;;3.10;1.77;;;;;;;31.79;31.04;100659.16;6185560;23;20344;-78
2022/09/30 10:31:37;;;;;;;2.53;1.20;;;;;;;31.65;30.76;100636.16;6183058;23;20025;-82
2022/09/30 10:34:21;;;;;;;2.70;1.73;;;;;;;31.52;30.83;100626.34;6183228;23;20036;-79
2022/09/30 10:36:49;;;;;;;7.40;1.80;;;;;;;31.65;30.92;100664.22;6156481;23;20356;-78
2022/09/30 10:39:28;;;;;;;5.28;1.35;;;;;;;31.76;30.65;100664.94;6183305;23;20360;-79
2022/09/30 10:42:07;;;;;;;1.83;1.30;;;;;;;31.88;30.83;100669.44;6146667;23;20022;-80
2022/09/30 10:44:42;;;;;;;;;;;;;;;31.38;32.86;100668.53;6125185;23;20021;-80
2022/09/30 10:47:18;;;;;;;3.15;2.13;;;;;;;31.44;32.11;100657.34;6124195;23;19917;-80
2022/09/30 10:49:46;;;;;;;2.78;1.95;;;;;;;31.61;31.00;100661.34;6121621;23;20434;-79
2022/09/30 10:52:24;;;;;;;5.47;1.70;;;;;;;31.56;31.44;100658.94;6125018;23;20022;-79
2022/09/30 10:55:06;;;;;;;2.78;1.33;;;;;;;31.27;31.48;100659.03;6122681;23;20101;-79
2022/09/30 10:57:42;;;;;;;2.50;1.60;;;;;;;31.53;31.18;100656.88;6123201;23;20053;-79
2022/09/30 11:00:09;;;;;;;5.65;1.70;;;;;;;31.96;30.46;100673.91;6123488;23;20022;-78
2022/09/30 11:02:42;;;;;;;4.68;1.48;;;;;;;32.14;29.79;100656.41;6123225;23;20025;-80
2022/09/30 11:05:25;;;;;;;2.63;1.13;;;;;;;32.59;29.51;100668.00;6119749;23;20018;-80
2022/09/30 11:08:00;;;;;;;1.80;1.10;;;;;;;32.75;28.84;100676.91;6119979;23;20077;-80
2022/09/30 11:10:38;;;;;;;2.15;1.15;;;;;;;32.86;28.83;100679.69;6122581;23;20042;-80
2022/09/30 11:13:24;;;;;;;;;;;;;;;32.66;31.46;100667.94;6123307;23;20059;-80
2022/09/30 11:16:09;;;;;;;2.40;1.33;;;;;;;33.23;29.29;100653.63;6124435;23;19917;-80
2022/09/30 11:19:03;;;;;;;2.83;1.30;;;;;;;33.68;28.92;100670.78;6123325;23;20073;-80
2022/09/30 11:21:33;;;;;;;5.45;1.60;;;;;;;34.00;27.60;100660.78;6124366;23;20040;-81
2022/09/30 11:24:10;;;;;;;5.18;1.52;;;;;;;34.14;27.55;100651.03;6122801;23;20026;-80
2022/09/30 11:26:50;;;;;;;2.25;1.33;;;;;;;34.01;27.30;100633.44;6124694;23;20493;-79
2022/09/30 11:29:42;;;;;;;7.50;2.58;;;;;;;34.22;27.39;100663.31;6124697;23;20026;-79
2022/09/30 11:32:15;;;;;;;3.53;1.40;;;;;;;34.25;26.70;100656.63;6144475;23;20074;-79
2022/09/30 11:35:20;;;;;;;1.80;1.15;;;;;;;34.27;26.96;100654.13;6141955;23;20340;-82
2022/09/30 11:38:10;;;;;;;3.50;1.42;;;;;;;34.33;26.65;100658.97;6139269;23;20032;-80
2022/09/30 11:41:21;;;;;;;2.45;1.40;;;;;;;34.45;26.39;100645.91;6159218;23;20036;-79
2022/09/30 11:44:27;;;;;;;1.98;1.25;;;;;;;34.99;26.24;100636.97;6136302;23;20025;-80
2022/09/30 11:47:04;;;;;;;2.20;1.42;;;;;;;35.63;25.10;100643.47;6147791;23;20027;-79
2022/09/30 11:49:51;;;;;;;2.30;1.70;;;;;;;35.99;24.59;100636.75;6186034;23;20021;-79
2022/09/30 11:52:46;;;;;;;2.90;1.40;;;;;;;36.37;24.16;100634.13;6186540;23;20024;-79
2022/09/30 11:55:31;;;;;;;6.72;2.38;;;;;;;37.03;23.69;100633.97;6159711;23;20025;-79
2022/09/30 11:58:12;;;;;;;3.70;2.22;;;;;;;37.24;22.81;100621.69;6184155;23;20017;-79
2022/09/30 12:01:42;;;;;;;4.70;1.92;;;;;;;38.02;22.46;100635.00;6163481;23;20141;-79
2022/09/30 12:04:19;;;;;;;4.20;1.95;;;;;;;38.00;21.93;100623.81;6129881;23;20521;-80
2022/09/30 12:06:53;;;;;;;2.20;1.25;;;;;;;38.13;21.23;100606.31;6159792;23;20021;-79
2022/09/30 12:09:31;;;;;;;5.22;1.75;;;;;;;38.75;21.04;100597.00;6158778;23;20020;-80